createdAt,value
2022-10-22T00:00:20.223Z,685.00
2022-10-22T00:00:50.334Z,684.00
2022-10-22T00:01:20.464Z,684.00
2022-10-22T00:01:50.557Z,684.00
2022-10-22T00:02:20.833Z,685.00
2022-10-22T00:02:50.867Z,686.00
2022-10-22T00:03:20.756Z,688.00
2022-10-22T00:03:50.879Z,685.00
2022-10-22T00:04:20.967Z,684.00
2022-10-22T00:04:51.132Z,686.00
2022-10-22T00:05:21.100Z,685.00
2022-10-22T00:05:51.211Z,685.00
2022-10-22T00:06:21.327Z,687.00
2022-10-22T00:06:51.431Z,687.00
2022-10-22T00:07:21.535Z,687.00
2022-10-22T00:07:51.649Z,688.00
2022-10-22T00:08:21.759Z,690.00
2022-10-22T00:08:51.925Z,691.00
2022-10-22T00:09:21.917Z,688.00
2022-10-22T00:09:52.022Z,688.00
2022-10-22T00:10:22.136Z,686.00
2022-10-22T00:10:52.246Z,686.00
2022-10-22T00:11:22.363Z,684.00
2022-10-22T00:11:52.370Z,684.00
2022-10-22T00:12:22.390Z,684.00
2022-10-22T00:12:52.504Z,682.00
2022-10-22T00:13:22.621Z,683.00
2022-10-22T00:13:52.734Z,684.00
2022-10-22T00:14:22.855Z,684.00
2022-10-22T00:14:52.846Z,684.00
2022-10-22T00:15:22.952Z,683.00
2022-10-22T00:15:53.059Z,682.00
2022-10-22T00:16:23.171Z,677.00
2022-10-22T00:16:53.281Z,680.00
2022-10-22T00:17:23.394Z,679.00
2022-10-22T00:17:53.498Z,678.00
2022-10-22T00:18:23.613Z,677.00
2022-10-22T00:18:53.718Z,678.00
2022-10-22T00:19:23.829Z,680.00
2022-10-22T00:19:53.938Z,681.00
2022-10-22T00:20:24.053Z,680.00
2022-10-22T00:20:54.164Z,678.00
2022-10-22T00:21:24.169Z,676.00
2022-10-22T00:21:54.278Z,679.00
2022-10-22T00:22:24.318Z,677.00
2022-10-22T00:22:54.430Z,679.00
2022-10-22T00:23:24.537Z,680.00
2022-10-22T00:23:54.644Z,677.00
2022-10-22T00:24:24.752Z,677.00
2022-10-22T00:24:54.865Z,677.00
2022-10-22T00:25:24.970Z,677.00
2022-10-22T00:25:55.074Z,678.00
2022-10-22T00:26:25.192Z,678.00
2022-10-22T00:26:55.325Z,678.00
2022-10-22T00:27:25.407Z,679.00
2022-10-22T00:27:55.513Z,678.00
2022-10-22T00:28:25.624Z,679.00
2022-10-22T00:28:55.738Z,682.00
2022-10-22T00:29:25.846Z,680.00
2022-10-22T00:29:55.952Z,677.00
2022-10-22T00:30:26.060Z,682.00
2022-10-22T00:30:56.166Z,680.00
2022-10-22T00:31:26.277Z,678.00
2022-10-22T00:32:26.468Z,679.00
2022-10-22T00:32:56.577Z,680.00
2022-10-22T00:33:26.685Z,681.00
2022-10-22T00:33:56.792Z,682.00
2022-10-22T00:34:26.902Z,681.00
2022-10-22T00:34:57.009Z,680.00
2022-10-22T00:35:27.122Z,681.00
2022-10-22T00:35:57.231Z,680.00
2022-10-22T00:36:27.351Z,679.00
2022-10-22T00:36:57.455Z,677.00
2022-10-22T00:37:27.566Z,680.00
2022-10-22T00:37:57.669Z,682.00
2022-10-22T00:38:27.780Z,680.00
2022-10-22T00:38:57.884Z,678.00
2022-10-22T00:39:27.991Z,678.00
2022-10-22T00:39:58.094Z,682.00
2022-10-22T00:40:28.205Z,681.00
2022-10-22T00:40:58.384Z,680.00
2022-10-22T00:41:28.352Z,676.00
2022-10-22T00:41:58.489Z,675.00
2022-10-22T00:42:28.571Z,676.00
2022-10-22T00:42:58.680Z,675.00
2022-10-22T00:43:28.799Z,677.00
2022-10-22T00:43:58.906Z,677.00
2022-10-22T00:44:29.022Z,676.00
2022-10-22T00:44:59.120Z,675.00
2022-10-22T00:45:29.224Z,674.00
2022-10-22T00:45:59.331Z,674.00
2022-10-22T00:46:29.449Z,673.00
2022-10-22T00:46:59.553Z,673.00
2022-10-22T00:47:29.662Z,673.00
2022-10-22T00:47:59.777Z,670.00
2022-10-22T00:48:29.886Z,669.00
2022-10-22T00:48:59.999Z,668.00
2022-10-22T00:49:30.104Z,667.00
2022-10-22T00:50:00.290Z,669.00
2022-10-22T00:50:30.256Z,667.00
2022-10-22T00:51:00.356Z,665.00
2022-10-22T00:51:30.465Z,666.00
2022-10-22T00:52:00.579Z,666.00
2022-10-22T00:52:30.598Z,665.00
2022-10-22T00:53:00.614Z,664.00
2022-10-22T00:53:30.632Z,665.00
2022-10-22T00:54:00.653Z,666.00
2022-10-22T00:54:30.675Z,667.00
2022-10-22T00:55:00.697Z,669.00
2022-10-22T00:55:30.719Z,669.00
2022-10-22T00:56:00.739Z,669.00
2022-10-22T00:56:30.767Z,669.00
2022-10-22T00:57:00.785Z,668.00
2022-10-22T00:57:30.835Z,667.00
2022-10-22T00:58:00.830Z,665.00
2022-10-22T00:58:30.851Z,665.00
2022-10-22T00:59:00.951Z,665.00
2022-10-22T00:59:30.981Z,667.00
2022-10-22T01:00:00.995Z,667.00
2022-10-22T01:00:31.117Z,666.00
2022-10-22T01:01:01.253Z,668.00
2022-10-22T01:01:31.049Z,666.00
2022-10-22T01:02:01.063Z,668.00
2022-10-22T01:02:31.083Z,669.00
2022-10-22T01:03:01.099Z,669.00
2022-10-22T01:03:31.136Z,669.00
2022-10-22T01:04:01.140Z,670.00
2022-10-22T01:04:31.159Z,670.00
2022-10-22T01:05:01.177Z,668.00
2022-10-22T01:05:31.197Z,670.00
2022-10-22T01:06:01.248Z,670.00
2022-10-22T01:06:31.270Z,670.00
2022-10-22T01:07:01.292Z,669.00
2022-10-22T01:07:31.310Z,670.00
2022-10-22T01:08:01.397Z,668.00
2022-10-22T01:08:31.457Z,665.00
2022-10-22T01:09:01.599Z,664.00
2022-10-22T01:09:31.488Z,666.00
2022-10-22T01:10:01.504Z,665.00
2022-10-22T01:10:31.534Z,666.00
2022-10-22T01:11:01.556Z,665.00
2022-10-22T01:11:31.578Z,666.00
2022-10-22T01:12:01.598Z,665.00
2022-10-22T01:12:31.627Z,664.00
2022-10-22T01:13:01.670Z,665.00
2022-10-22T01:13:31.667Z,669.00
2022-10-22T01:14:01.687Z,669.00
2022-10-22T01:14:31.710Z,669.00
2022-10-22T01:15:01.734Z,669.00
2022-10-22T01:15:31.755Z,669.00
2022-10-22T01:16:01.797Z,668.00
2022-10-22T01:16:31.815Z,669.00
2022-10-22T01:17:01.833Z,670.00
2022-10-22T01:17:31.855Z,669.00
2022-10-22T01:18:01.870Z,669.00
2022-10-22T01:18:31.893Z,669.00
2022-10-22T01:19:01.902Z,671.00
2022-10-22T01:19:31.919Z,671.00
2022-10-22T01:20:01.936Z,670.00
2022-10-22T01:20:31.959Z,672.00
2022-10-22T01:21:01.999Z,672.00
2022-10-22T01:21:32.018Z,675.00
2022-10-22T01:22:02.039Z,672.00
2022-10-22T01:22:32.060Z,670.00
2022-10-22T01:23:02.078Z,670.00
2022-10-22T01:23:32.099Z,672.00
2022-10-22T01:24:02.117Z,669.00
2022-10-22T01:24:32.139Z,666.00
2022-10-22T01:25:02.153Z,666.00
2022-10-22T01:25:32.175Z,664.00
2022-10-22T01:26:02.215Z,664.00
2022-10-22T01:26:32.236Z,663.00
2022-10-22T01:27:02.252Z,664.00
2022-10-22T01:27:32.273Z,664.00
2022-10-22T01:28:02.294Z,666.00
2022-10-22T01:28:32.339Z,666.00
2022-10-22T01:29:02.335Z,665.00
2022-10-22T01:29:32.350Z,665.00
2022-10-22T01:30:02.369Z,664.00
2022-10-22T01:30:32.388Z,664.00
2022-10-22T01:31:02.422Z,665.00
2022-10-22T01:31:32.445Z,663.00
2022-10-22T01:32:02.461Z,664.00
2022-10-22T01:32:32.481Z,663.00
2022-10-22T01:33:02.495Z,662.00
2022-10-22T01:33:32.517Z,662.00
2022-10-22T01:34:02.534Z,662.00
2022-10-22T01:34:32.557Z,663.00
2022-10-22T01:35:02.575Z,664.00
2022-10-22T01:36:02.747Z,664.00
2022-10-22T01:36:32.763Z,664.00
2022-10-22T01:37:02.783Z,662.00
2022-10-22T01:37:32.807Z,661.00
2022-10-22T01:38:02.825Z,660.00
2022-10-22T01:38:32.844Z,659.00
2022-10-22T01:39:02.859Z,661.00
2022-10-22T01:39:32.873Z,661.00
2022-10-22T01:40:02.892Z,663.00
2022-10-22T01:40:32.913Z,664.00
2022-10-22T01:41:02.933Z,661.00
2022-10-22T01:41:32.951Z,662.00
2022-10-22T01:42:02.962Z,667.00
2022-10-22T01:42:33.066Z,665.00
2022-10-22T01:43:03.179Z,664.00
2022-10-22T01:43:33.284Z,663.00
2022-10-22T01:44:03.407Z,662.00
2022-10-22T01:44:33.576Z,661.00
2022-10-22T01:45:03.547Z,663.00
2022-10-22T01:45:33.656Z,665.00
2022-10-22T01:46:03.765Z,665.00
2022-10-22T01:46:33.872Z,666.00
2022-10-22T01:47:03.977Z,665.00
2022-10-22T01:47:34.087Z,664.00
2022-10-22T01:48:04.190Z,664.00
2022-10-22T01:48:34.295Z,664.00
2022-10-22T01:49:04.400Z,664.00
2022-10-22T01:49:34.506Z,664.00
2022-10-22T01:50:04.610Z,665.00
2022-10-22T01:50:34.733Z,664.00
2022-10-22T01:51:04.713Z,664.00
2022-10-22T01:51:34.820Z,664.00
2022-10-22T01:52:04.933Z,662.00
2022-10-22T01:52:34.954Z,663.00
2022-10-22T01:53:04.972Z,663.00
2022-10-22T01:53:35.066Z,664.00
2022-10-22T01:54:05.076Z,664.00
2022-10-22T01:54:35.092Z,661.00
2022-10-22T01:55:05.111Z,661.00
2022-10-22T01:55:35.134Z,661.00
2022-10-22T01:56:05.166Z,658.00
2022-10-22T01:56:35.181Z,659.00
2022-10-22T01:57:05.212Z,659.00
2022-10-22T01:57:35.233Z,660.00
2022-10-22T01:58:05.250Z,661.00
2022-10-22T01:58:35.277Z,660.00
2022-10-22T01:59:05.292Z,660.00
2022-10-22T01:59:35.339Z,660.00
2022-10-22T02:00:05.334Z,660.00
2022-10-22T02:00:35.397Z,662.00
2022-10-22T02:01:05.466Z,661.00
2022-10-22T02:01:35.464Z,660.00
2022-10-22T02:02:05.484Z,659.00
2022-10-22T02:02:35.556Z,658.00
2022-10-22T02:03:05.573Z,658.00
2022-10-22T02:03:35.590Z,658.00
2022-10-22T02:04:05.608Z,656.00
2022-10-22T02:04:35.626Z,657.00
2022-10-22T02:05:05.649Z,657.00
2022-10-22T02:05:35.666Z,656.00
2022-10-22T02:06:05.687Z,658.00
2022-10-22T02:06:35.706Z,656.00
2022-10-22T02:07:05.722Z,656.00
2022-10-22T02:07:35.739Z,656.00
2022-10-22T02:08:05.758Z,653.00
2022-10-22T02:08:35.884Z,654.00
2022-10-22T02:09:05.882Z,653.00
2022-10-22T02:09:35.786Z,653.00
2022-10-22T02:10:05.802Z,655.00
2022-10-22T02:10:35.822Z,654.00
2022-10-22T02:11:05.847Z,653.00
2022-10-22T02:11:35.869Z,653.00
2022-10-22T02:12:35.994Z,651.00
2022-10-22T02:13:06.012Z,651.00
2022-10-22T02:13:36.031Z,652.00
2022-10-22T02:14:06.050Z,653.00
2022-10-22T02:14:36.069Z,654.00
2022-10-22T02:15:06.111Z,654.00
2022-10-22T02:15:36.101Z,653.00
2022-10-22T02:16:06.129Z,652.00
2022-10-22T02:16:36.141Z,651.00
2022-10-22T02:17:06.165Z,652.00
2022-10-22T02:17:36.180Z,650.00
2022-10-22T02:18:06.197Z,647.00
2022-10-22T02:18:38.774Z,646.00
2022-10-22T02:19:06.219Z,644.00
2022-10-22T02:19:36.241Z,645.00
2022-10-22T02:20:06.266Z,644.00
2022-10-22T02:20:36.284Z,644.00
2022-10-22T02:21:06.307Z,643.00
2022-10-22T02:21:36.329Z,642.00
2022-10-22T02:22:06.348Z,645.00
2022-10-22T02:22:36.369Z,645.00
2022-10-22T02:23:06.385Z,646.00
2022-10-22T02:23:36.401Z,647.00
2022-10-22T02:24:06.421Z,646.00
2022-10-22T02:24:36.439Z,646.00
2022-10-22T02:25:06.460Z,646.00
2022-10-22T02:25:36.477Z,647.00
2022-10-22T02:26:06.497Z,647.00
2022-10-22T02:26:36.510Z,648.00
2022-10-22T02:27:06.532Z,647.00
2022-10-22T02:27:36.552Z,646.00
2022-10-22T02:28:06.577Z,645.00
2022-10-22T02:28:36.591Z,646.00
2022-10-22T02:29:06.610Z,645.00
2022-10-22T02:29:36.626Z,644.00
2022-10-22T02:30:06.728Z,644.00
2022-10-22T02:30:36.662Z,645.00
2022-10-22T02:31:06.673Z,644.00
2022-10-22T02:31:36.690Z,645.00
2022-10-22T02:32:06.709Z,645.00
2022-10-22T02:32:36.727Z,649.00
2022-10-22T02:33:06.743Z,649.00
2022-10-22T02:33:36.762Z,650.00
2022-10-22T02:34:06.779Z,650.00
2022-10-22T02:34:36.794Z,651.00
2022-10-22T02:35:06.813Z,652.00
2022-10-22T02:35:36.833Z,651.00
2022-10-22T02:36:06.882Z,653.00
2022-10-22T02:36:36.904Z,651.00
2022-10-22T02:37:06.921Z,648.00
2022-10-22T02:37:36.938Z,649.00
2022-10-22T02:38:06.953Z,651.00
2022-10-22T02:38:36.970Z,647.00
2022-10-22T02:39:07.060Z,646.00
2022-10-22T02:39:37.103Z,646.00
2022-10-22T02:40:07.119Z,646.00
2022-10-22T02:40:37.141Z,644.00
2022-10-22T02:41:07.235Z,645.00
2022-10-22T02:41:37.255Z,644.00
2022-10-22T02:42:07.282Z,644.00
2022-10-22T02:42:37.631Z,643.00
2022-10-22T02:43:07.440Z,643.00
2022-10-22T02:43:37.547Z,642.00
2022-10-22T02:44:07.657Z,642.00
2022-10-22T02:44:37.763Z,643.00
2022-10-22T02:45:07.873Z,641.00
2022-10-22T02:45:37.981Z,641.00
2022-10-22T02:46:08.141Z,642.00
2022-10-22T02:46:38.096Z,644.00
2022-10-22T02:47:08.203Z,644.00
2022-10-22T02:47:38.309Z,645.00
2022-10-22T02:48:08.446Z,647.00
2022-10-22T02:48:38.446Z,647.00
2022-10-22T02:49:08.585Z,648.00
2022-10-22T02:49:38.646Z,647.00
2022-10-22T02:50:10.380Z,647.00
2022-10-22T02:50:38.807Z,646.00
2022-10-22T02:51:08.928Z,645.00
2022-10-22T02:51:38.909Z,645.00
2022-10-22T02:52:09.030Z,644.00
2022-10-22T02:52:39.500Z,646.00
2022-10-22T02:53:09.136Z,646.00
2022-10-22T02:53:39.153Z,646.00
2022-10-22T02:54:09.175Z,645.00
2022-10-22T02:54:39.200Z,644.00
2022-10-22T02:55:09.215Z,644.00
2022-10-22T02:55:39.234Z,641.00
2022-10-22T02:56:09.280Z,641.00
2022-10-22T02:56:39.305Z,644.00
2022-10-22T02:57:09.383Z,646.00
2022-10-22T02:57:39.739Z,644.00
2022-10-22T02:58:09.467Z,645.00
2022-10-22T02:58:39.480Z,646.00
2022-10-22T02:59:09.501Z,646.00
2022-10-22T02:59:39.521Z,644.00
2022-10-22T03:00:09.541Z,641.00
2022-10-22T03:00:39.637Z,642.00
2022-10-22T03:01:12.386Z,645.00
2022-10-22T03:01:39.755Z,645.00
2022-10-22T03:02:09.753Z,646.00
2022-10-22T03:02:39.769Z,644.00
2022-10-22T03:03:09.789Z,646.00
2022-10-22T03:03:39.809Z,643.00
2022-10-22T03:04:09.825Z,646.00
2022-10-22T03:04:39.841Z,644.00
2022-10-22T03:05:09.861Z,645.00
2022-10-22T03:05:39.878Z,645.00
2022-10-22T03:06:09.935Z,645.00
2022-10-22T03:06:39.967Z,642.00
2022-10-22T03:07:09.993Z,644.00
2022-10-22T03:07:40.236Z,645.00
2022-10-22T03:08:10.080Z,645.00
2022-10-22T03:08:40.160Z,643.00
2022-10-22T03:09:10.203Z,642.00
2022-10-22T03:09:40.198Z,640.00
2022-10-22T03:10:10.219Z,640.00
2022-10-22T03:10:40.239Z,640.00
2022-10-22T03:11:10.284Z,638.00
2022-10-22T03:11:40.297Z,639.00
2022-10-22T03:12:10.317Z,638.00
2022-10-22T03:12:40.336Z,638.00
2022-10-22T03:13:10.355Z,638.00
2022-10-22T03:13:40.375Z,641.00
2022-10-22T03:14:10.401Z,640.00
2022-10-22T03:14:40.408Z,642.00
2022-10-22T03:15:10.429Z,644.00
2022-10-22T03:15:40.446Z,645.00
2022-10-22T03:16:10.499Z,647.00
2022-10-22T03:16:40.517Z,645.00
2022-10-22T03:17:10.562Z,646.00
2022-10-22T03:17:40.888Z,646.00
2022-10-22T03:18:10.636Z,649.00
2022-10-22T03:18:40.654Z,647.00
2022-10-22T03:19:10.672Z,649.00
2022-10-22T03:19:40.687Z,650.00
2022-10-22T03:20:10.704Z,650.00
2022-10-22T03:20:40.726Z,648.00
2022-10-22T03:21:10.760Z,646.00
2022-10-22T03:21:40.781Z,645.00
2022-10-22T03:22:10.799Z,646.00
2022-10-22T03:22:40.816Z,644.00
2022-10-22T03:23:10.828Z,645.00
2022-10-22T03:23:40.845Z,647.00
2022-10-22T03:24:10.868Z,645.00
2022-10-22T03:24:40.895Z,646.00
2022-10-22T03:25:10.905Z,644.00
2022-10-22T03:25:40.920Z,643.00
2022-10-22T03:26:10.974Z,642.00
2022-10-22T03:26:40.995Z,642.00
2022-10-22T03:27:11.013Z,641.00
2022-10-22T03:27:41.401Z,642.00
2022-10-22T03:28:11.126Z,642.00
2022-10-22T03:28:41.141Z,641.00
2022-10-22T03:29:11.161Z,641.00
2022-10-22T03:29:41.179Z,642.00
2022-10-22T03:30:11.199Z,643.00
2022-10-22T03:30:41.214Z,641.00
2022-10-22T03:31:11.244Z,638.00
2022-10-22T03:31:41.261Z,638.00
2022-10-22T03:32:11.282Z,640.00
2022-10-22T03:32:41.319Z,639.00
2022-10-22T03:33:11.311Z,640.00
2022-10-22T03:33:41.328Z,641.00
2022-10-22T03:34:11.345Z,640.00
2022-10-22T03:34:41.364Z,642.00
2022-10-22T03:35:11.387Z,641.00
2022-10-22T03:35:41.439Z,641.00
2022-10-22T03:36:11.474Z,641.00
2022-10-22T03:36:41.494Z,641.00
2022-10-22T03:37:11.508Z,644.00
2022-10-22T03:37:41.866Z,643.00
2022-10-22T03:38:11.612Z,643.00
2022-10-22T03:38:41.631Z,642.00
2022-10-22T03:39:11.660Z,645.00
2022-10-22T03:39:41.671Z,645.00
2022-10-22T03:40:11.693Z,646.00
2022-10-22T03:40:41.724Z,644.00
2022-10-22T03:41:11.740Z,644.00
2022-10-22T03:41:41.765Z,645.00
2022-10-22T03:42:11.766Z,642.00
2022-10-22T03:42:41.871Z,643.00
2022-10-22T03:43:11.978Z,642.00
2022-10-22T03:43:42.084Z,640.00
2022-10-22T03:44:12.195Z,641.00
2022-10-22T03:44:42.293Z,640.00
2022-10-22T03:45:12.399Z,640.00
2022-10-22T03:45:42.535Z,640.00
2022-10-22T03:46:12.517Z,637.00
2022-10-22T03:46:42.625Z,636.00
2022-10-22T03:47:12.729Z,637.00
2022-10-22T03:47:43.222Z,636.00
2022-10-22T03:48:12.944Z,636.00
2022-10-22T03:48:43.029Z,635.00
2022-10-22T03:49:13.137Z,635.00
2022-10-22T03:49:43.239Z,634.00
2022-10-22T03:50:13.355Z,634.00
2022-10-22T03:50:43.512Z,632.00
2022-10-22T03:51:13.493Z,633.00
2022-10-22T03:51:43.596Z,634.00
2022-10-22T03:52:13.595Z,633.00
2022-10-22T03:52:43.619Z,633.00
2022-10-22T03:53:13.640Z,632.00
2022-10-22T03:53:43.661Z,631.00
2022-10-22T03:54:13.674Z,633.00
2022-10-22T03:54:43.689Z,634.00
2022-10-22T03:55:13.717Z,632.00
2022-10-22T03:55:43.767Z,633.00
2022-10-22T03:56:13.790Z,631.00
2022-10-22T03:56:43.809Z,630.00
2022-10-22T03:57:13.829Z,629.00
2022-10-22T03:57:43.846Z,629.00
2022-10-22T03:58:13.863Z,631.00
2022-10-22T03:58:43.878Z,631.00
2022-10-22T03:59:13.894Z,634.00
2022-10-22T03:59:43.914Z,632.00
2022-10-22T04:00:13.937Z,631.00
2022-10-22T04:00:44.017Z,631.00
2022-10-22T04:01:14.111Z,630.00
2022-10-22T04:01:44.139Z,632.00
2022-10-22T04:02:14.159Z,630.00
2022-10-22T04:02:44.179Z,632.00
2022-10-22T04:03:14.195Z,632.00
2022-10-22T04:03:44.247Z,632.00
2022-10-22T04:04:14.236Z,632.00
2022-10-22T04:04:44.257Z,632.00
2022-10-22T04:05:44.284Z,634.00
2022-10-22T04:06:14.307Z,634.00
2022-10-22T04:06:44.321Z,636.00
2022-10-22T04:07:14.350Z,637.00
2022-10-22T04:07:44.374Z,637.00
2022-10-22T04:08:14.390Z,637.00
2022-10-22T04:08:44.472Z,639.00
2022-10-22T04:09:14.604Z,638.00
2022-10-22T04:09:44.623Z,636.00
2022-10-22T04:10:14.647Z,639.00
2022-10-22T04:10:44.680Z,636.00
2022-10-22T04:11:14.698Z,634.00
2022-10-22T04:11:44.713Z,636.00
2022-10-22T04:12:14.734Z,632.00
2022-10-22T04:12:44.757Z,633.00
2022-10-22T04:13:14.771Z,635.00
2022-10-22T04:13:44.788Z,636.00
2022-10-22T04:14:14.805Z,638.00
2022-10-22T04:14:44.818Z,639.00
2022-10-22T04:15:14.837Z,638.00
2022-10-22T04:16:14.867Z,637.00
2022-10-22T04:16:44.877Z,637.00
2022-10-22T04:17:14.900Z,636.00
2022-10-22T04:17:44.916Z,635.00
2022-10-22T04:18:14.930Z,637.00
2022-10-22T04:18:44.948Z,635.00
2022-10-22T04:19:14.988Z,636.00
2022-10-22T04:19:44.980Z,634.00
2022-10-22T04:20:14.994Z,633.00
2022-10-22T04:20:45.038Z,632.00
2022-10-22T04:21:15.057Z,630.00
2022-10-22T04:21:45.074Z,631.00
2022-10-22T04:22:15.092Z,632.00
2022-10-22T04:22:45.109Z,629.00
2022-10-22T04:23:15.128Z,628.00
2022-10-22T04:23:45.149Z,629.00
2022-10-22T04:24:15.167Z,630.00
2022-10-22T04:24:45.215Z,631.00
2022-10-22T04:25:15.223Z,630.00
2022-10-22T04:25:45.271Z,629.00
2022-10-22T04:26:15.294Z,628.00
2022-10-22T04:26:45.313Z,626.00
2022-10-22T04:27:15.337Z,626.00
2022-10-22T04:27:45.352Z,626.00
2022-10-22T04:28:15.367Z,627.00
2022-10-22T04:28:45.390Z,627.00
2022-10-22T04:29:16.373Z,628.00
2022-10-22T04:29:45.446Z,628.00
2022-10-22T04:30:15.465Z,629.00
2022-10-22T04:30:45.517Z,629.00
2022-10-22T04:31:15.531Z,629.00
2022-10-22T04:31:45.553Z,631.00
2022-10-22T04:32:15.573Z,632.00
2022-10-22T04:32:45.591Z,631.00
2022-10-22T04:33:15.606Z,632.00
2022-10-22T04:33:45.622Z,632.00
2022-10-22T04:34:15.640Z,631.00
2022-10-22T04:34:45.684Z,630.00
2022-10-22T04:35:15.727Z,629.00
2022-10-22T04:35:45.750Z,629.00
2022-10-22T04:36:15.775Z,629.00
2022-10-22T04:36:45.791Z,628.00
2022-10-22T04:37:15.806Z,627.00
2022-10-22T04:37:45.824Z,628.00
2022-10-22T04:38:15.840Z,630.00
2022-10-22T04:38:45.853Z,632.00
2022-10-22T04:39:15.872Z,629.00
2022-10-22T04:39:45.891Z,628.00
2022-10-22T04:40:15.913Z,627.00
2022-10-22T04:40:45.956Z,626.00
2022-10-22T04:41:15.972Z,625.00
2022-10-22T04:41:45.990Z,625.00
2022-10-22T04:42:15.984Z,626.00
2022-10-22T04:42:46.090Z,626.00
2022-10-22T04:43:16.196Z,627.00
2022-10-22T04:43:46.306Z,626.00
2022-10-22T04:44:16.435Z,629.00
2022-10-22T04:44:46.523Z,628.00
2022-10-22T04:45:16.632Z,628.00
2022-10-22T04:45:46.865Z,628.00
2022-10-22T04:46:16.742Z,626.00
2022-10-22T04:46:46.849Z,627.00
2022-10-22T04:47:16.954Z,625.00
2022-10-22T04:47:47.062Z,625.00
2022-10-22T04:48:17.165Z,625.00
2022-10-22T04:48:47.271Z,624.00
2022-10-22T04:49:17.382Z,623.00
2022-10-22T04:49:47.488Z,622.00
2022-10-22T04:50:17.615Z,624.00
2022-10-22T04:50:47.712Z,625.00
2022-10-22T04:51:17.694Z,624.00
2022-10-22T04:51:47.804Z,626.00
2022-10-22T04:52:17.807Z,625.00
2022-10-22T04:52:47.824Z,625.00
2022-10-22T04:53:17.849Z,624.00
2022-10-22T04:53:47.868Z,624.00
2022-10-22T04:54:17.892Z,623.00
2022-10-22T04:54:47.908Z,623.00
2022-10-22T04:55:17.983Z,625.00
2022-10-22T04:55:48.043Z,625.00
2022-10-22T04:56:18.064Z,625.00
2022-10-22T04:56:48.094Z,626.00
2022-10-22T04:57:18.113Z,627.00
2022-10-22T04:57:48.133Z,628.00
2022-10-22T04:58:18.143Z,632.00
2022-10-22T04:58:48.161Z,630.00
2022-10-22T04:59:18.181Z,631.00
2022-10-22T04:59:48.207Z,629.00
2022-10-22T05:00:18.220Z,629.00
2022-10-22T05:00:48.327Z,629.00
2022-10-22T05:01:18.341Z,627.00
2022-10-22T05:01:48.369Z,625.00
2022-10-22T05:02:18.390Z,625.00
2022-10-22T05:02:48.410Z,624.00
2022-10-22T05:03:18.425Z,625.00
2022-10-22T05:03:48.448Z,626.00
2022-10-22T05:04:18.482Z,624.00
2022-10-22T05:04:48.498Z,624.00
2022-10-22T05:05:18.513Z,625.00
2022-10-22T05:05:48.553Z,624.00
2022-10-22T05:06:18.570Z,623.00
2022-10-22T05:06:48.586Z,622.00
2022-10-22T05:07:18.597Z,623.00
2022-10-22T05:07:48.615Z,622.00
2022-10-22T05:08:18.636Z,621.00
2022-10-22T05:08:48.720Z,624.00
2022-10-22T05:09:18.787Z,624.00
2022-10-22T05:09:48.793Z,621.00
2022-10-22T05:10:18.811Z,620.00
2022-10-22T05:10:48.859Z,621.00
2022-10-22T05:11:18.879Z,621.00
2022-10-22T05:11:49.133Z,622.00
2022-10-22T05:12:18.969Z,622.00
2022-10-22T05:12:48.986Z,624.00
2022-10-22T05:13:19.009Z,625.00
2022-10-22T05:13:49.044Z,624.00
2022-10-22T05:14:19.056Z,624.00
2022-10-22T05:14:49.069Z,623.00
2022-10-22T05:15:19.094Z,623.00
2022-10-22T05:15:49.156Z,622.00
2022-10-22T05:16:19.174Z,619.00
2022-10-22T05:16:49.502Z,621.00
2022-10-22T05:17:19.218Z,624.00
2022-10-22T05:17:49.241Z,628.00
2022-10-22T05:18:21.868Z,626.00
2022-10-22T05:18:49.374Z,621.00
2022-10-22T05:19:19.394Z,619.00
2022-10-22T05:19:49.408Z,619.00
2022-10-22T05:20:19.422Z,616.00
2022-10-22T05:20:49.443Z,617.00
2022-10-22T05:21:19.495Z,616.00
2022-10-22T05:21:49.488Z,614.00
2022-10-22T05:22:19.509Z,616.00
2022-10-22T05:22:49.528Z,616.00
2022-10-22T05:23:19.551Z,617.00
2022-10-22T05:23:49.568Z,619.00
2022-10-22T05:24:19.581Z,616.00
2022-10-22T05:24:49.608Z,619.00
2022-10-22T05:25:19.624Z,618.00
2022-10-22T05:25:49.638Z,619.00
2022-10-22T05:26:19.656Z,617.00
2022-10-22T05:26:49.677Z,616.00
2022-10-22T05:27:49.806Z,616.00
2022-10-22T05:28:19.822Z,618.00
2022-10-22T05:28:49.841Z,619.00
2022-10-22T05:29:19.852Z,619.00
2022-10-22T05:29:49.870Z,619.00
2022-10-22T05:30:19.883Z,621.00
2022-10-22T05:30:49.907Z,619.00
2022-10-22T05:31:19.930Z,614.00
2022-10-22T05:31:49.950Z,620.00
2022-10-22T05:32:19.963Z,623.00
2022-10-22T05:32:49.979Z,622.00
2022-10-22T05:33:24.007Z,624.00
2022-10-22T05:33:50.063Z,623.00
2022-10-22T05:34:20.084Z,624.00
2022-10-22T05:34:50.105Z,624.00
2022-10-22T05:35:20.115Z,624.00
2022-10-22T05:35:50.136Z,624.00
2022-10-22T05:36:20.160Z,625.00
2022-10-22T05:36:50.199Z,624.00
2022-10-22T05:37:20.194Z,623.00
2022-10-22T05:37:50.269Z,621.00
2022-10-22T05:38:20.289Z,623.00
2022-10-22T05:38:50.311Z,623.00
2022-10-22T05:39:20.328Z,620.00
2022-10-22T05:39:57.583Z,620.00
2022-10-22T05:40:30.466Z,617.00
2022-10-22T05:40:50.415Z,615.00
2022-10-22T05:41:20.434Z,615.00
2022-10-22T05:41:50.449Z,615.00
2022-10-22T05:42:20.566Z,617.00
2022-10-22T05:42:50.674Z,615.00
2022-10-22T05:43:20.787Z,615.00
2022-10-22T05:43:50.893Z,613.00
2022-10-22T05:44:20.999Z,614.00
2022-10-22T05:44:51.110Z,607.00
2022-10-22T05:45:21.218Z,615.00
2022-10-22T05:45:51.326Z,616.00
2022-10-22T05:46:23.041Z,614.00
2022-10-22T05:46:51.529Z,614.00
2022-10-22T05:47:21.631Z,614.00
2022-10-22T05:47:51.741Z,615.00
2022-10-22T05:48:21.902Z,613.00
2022-10-22T05:48:51.876Z,612.00
2022-10-22T05:49:21.977Z,613.00
2022-10-22T05:49:52.088Z,610.00
2022-10-22T05:50:22.190Z,616.00
2022-10-22T05:50:52.304Z,612.00
2022-10-22T05:51:22.402Z,608.00
2022-10-22T05:51:52.511Z,609.00
2022-10-22T05:52:22.557Z,609.00
2022-10-22T05:52:52.557Z,611.00
2022-10-22T05:53:22.576Z,611.00
2022-10-22T05:53:52.599Z,610.00
2022-10-22T05:54:22.623Z,610.00
2022-10-22T05:54:52.637Z,605.00
2022-10-22T05:55:22.656Z,604.00
2022-10-22T05:55:52.675Z,607.00
2022-10-22T05:56:22.704Z,609.00
2022-10-22T05:56:52.725Z,609.00
2022-10-22T05:57:22.740Z,610.00
2022-10-22T05:57:52.757Z,611.00
2022-10-22T05:58:22.769Z,612.00
2022-10-22T05:58:52.819Z,612.00
2022-10-22T05:59:22.881Z,610.00
2022-10-22T05:59:52.900Z,611.00
2022-10-22T06:00:22.916Z,608.00
2022-10-22T06:00:52.935Z,611.00
2022-10-22T06:01:22.949Z,615.00
2022-10-22T06:01:53.017Z,614.00
2022-10-22T06:02:23.048Z,612.00
2022-10-22T06:02:53.104Z,609.00
2022-10-22T06:03:23.119Z,610.00
2022-10-22T06:03:53.140Z,609.00
2022-10-22T06:04:23.156Z,617.00
2022-10-22T06:04:53.175Z,611.00
2022-10-22T06:05:23.197Z,611.00
2022-10-22T06:05:53.214Z,609.00
2022-10-22T06:06:23.238Z,612.00
2022-10-22T06:06:53.257Z,611.00
2022-10-22T06:07:23.281Z,609.00
2022-10-22T06:07:53.326Z,613.00
2022-10-22T06:08:23.316Z,619.00
2022-10-22T06:08:53.407Z,621.00
2022-10-22T06:09:23.536Z,622.00
2022-10-22T06:09:53.556Z,622.00
2022-10-22T06:10:23.567Z,624.00
2022-10-22T06:10:53.587Z,624.00
2022-10-22T06:11:23.609Z,622.00
2022-10-22T06:11:53.636Z,626.00
2022-10-22T06:12:23.649Z,624.00
2022-10-22T06:12:53.667Z,626.00
2022-10-22T06:13:23.685Z,628.00
2022-10-22T06:13:53.706Z,629.00
2022-10-22T06:14:23.724Z,625.00
2022-10-22T06:14:53.748Z,624.00
2022-10-22T06:15:23.772Z,623.00
2022-10-22T06:15:53.789Z,625.00
2022-10-22T06:16:23.806Z,620.00
2022-10-22T06:16:53.825Z,619.00
2022-10-22T06:17:23.850Z,622.00
2022-10-22T06:17:53.866Z,619.00